Angel Fire, New Mexico
Current Conditions -  °F | °C
As of 2:35 AM on Thursday 18 Dec 2014 (Local Time) from KAXX Reporting Station
Light Snow Light Snow  
Wind Chill: 16°   Ceiling: 1600
Heat Index: 28°   Visibility: 7mi
Dew Point: 24°   Wind: 14mph
Humidity: 85%   Direction: 240°WSW
Pressure: 30.05"   Gusts: NA
Location:  36.39°N, 105.29°W
Report Text: KAXX 180935Z AUTO 24012KT 7SM -SN BKN016 OVC038 M02/M05 A3005 RMK AO2 T10251047
Loading
Personal Weather Stations






























Interactive Weather Map New forecast layout! Learn more

10-Day Weather Forecast

Advertisements
Track Severe Weather on mobile